Time;durP1;ratioP1;P1;durP2;ratioP2;P2;SDS_P1;SDS_P2;PMS_P1;PMS_P2;Temp;Humidity;BMP_temperature;BMP_pressure;BME280_temperature;BME280_humidity;BME280_pressure;Samples;Min_cycle;Max_cycle;Signal;HPM_P1;HPM_P2
2023/01/15 00:01:35;;;;;;;5.20;1.15;;;;;;;6.39;100.00;99727.88;5020359;28;20499;-73
2023/01/15 00:04:04;;;;;;;7.35;1.13;;;;;;;6.38;100.00;99726.25;5021666;28;20056;-74
2023/01/15 00:06:31;;;;;;;9.73;1.33;;;;;;;6.40;100.00;99726.91;5023556;28;20041;-73
2023/01/15 00:08:57;;;;;;;3.33;0.80;;;;;;;6.38;100.00;99734.78;5041297;28;20538;-73
2023/01/15 00:11:23;;;;;;;8.00;1.00;;;;;;;6.51;100.00;99741.28;5023305;28;20128;-74
2023/01/15 00:13:49;;;;;;;4.28;0.77;;;;;;;6.53;100.00;99752.25;5042166;28;20108;-73
2023/01/15 00:16:18;;;;;;;1.35;0.50;;;;;;;6.54;100.00;99744.38;5008637;28;20033;-74
2023/01/15 00:18:50;;;;;;;3.92;0.88;;;;;;;6.52;100.00;99730.03;5014937;28;20128;-73
2023/01/15 00:21:15;;;;;;;1.92;0.60;;;;;;;6.37;100.00;99727.25;5026879;28;20039;-74
2023/01/15 00:29:15;;;;;;;5.22;0.80;;;;;;;6.30;100.00;99710.78;5028009;28;20474;-74
2023/01/15 00:31:42;;;;;;;2.85;0.60;;;;;;;6.23;100.00;99715.72;5033021;28;20038;-73
2023/01/15 00:34:08;;;;;;;3.70;1.02;;;;;;;6.21;100.00;99697.88;5026528;28;20044;-73
2023/01/15 00:36:33;;;;;;;4.28;0.77;;;;;;;6.38;100.00;99697.94;5019741;28;20268;-73
2023/01/15 00:39:03;;;;;;;3.67;0.50;;;;;;;6.26;100.00;99710.28;5043071;28;20683;-73
2023/01/15 00:41:28;;;;;;;5.03;0.90;;;;;;;6.28;100.00;99710.13;5026978;28;20045;-74
2023/01/15 00:43:54;;;;;;;1.23;0.57;;;;;;;6.29;100.00;99714.31;5030787;28;20525;-73
2023/01/15 00:46:20;;;;;;;2.13;0.60;;;;;;;6.34;100.00;99720.63;5024503;28;20033;-73
2023/01/15 00:48:46;;;;;;;4.28;0.50;;;;;;;6.26;100.00;99706.91;5042753;28;20035;-73
2023/01/15 00:51:12;;;;;;;2.70;0.50;;;;;;;6.27;100.00;99688.72;5009804;28;20037;-73
2023/01/15 00:53:37;;;;;;;4.70;0.70;;;;;;;6.23;100.00;99674.53;5011435;28;20033;-73
2023/01/15 00:56:03;;;;;;;7.38;0.68;;;;;;;6.14;100.00;99701.22;5043740;28;20029;-73
2023/01/15 00:58:28;;;;;;;4.78;0.60;;;;;;;6.09;100.00;99680.28;5025141;28;20601;-73
2023/01/15 01:00:56;;;;;;;3.95;0.70;;;;;;;6.00;100.00;99690.53;5015398;28;20059;-73
2023/01/15 01:03:22;;;;;;;3.13;0.60;;;;;;;6.01;100.00;99687.00;5026544;28;20121;-76
2023/01/15 01:05:47;;;;;;;2.88;0.70;;;;;;;6.01;100.00;99692.16;5026060;28;20139;-73
2023/01/15 01:08:13;;;;;;;6.55;0.52;;;;;;;6.10;100.00;99699.91;5025054;28;20090;-76
2023/01/15 01:10:39;;;;;;;4.75;0.73;;;;;;;5.94;100.00;99700.63;5028835;28;20477;-76
2023/01/15 01:13:05;;;;;;;3.67;0.57;;;;;;;5.95;100.00;99713.34;5040090;28;20419;-73
2023/01/15 01:15:35;;;;;;;5.28;0.60;;;;;;;5.91;100.00;99717.13;5040006;28;20040;-73
2023/01/15 01:18:01;;;;;;;2.75;0.70;;;;;;;5.89;100.00;99720.84;5045162;28;20033;-73
2023/01/15 01:20:27;;;;;;;1.65;0.45;;;;;;;5.99;100.00;99730.09;5045484;28;20078;-73
2023/01/15 01:22:53;;;;;;;4.10;0.85;;;;;;;5.94;100.00;99729.72;5041676;28;20560;-73
2023/01/15 01:25:19;;;;;;;4.07;1.42;;;;;;;5.88;99.89;99722.63;5025283;28;20147;-73
2023/01/15 01:27:45;;;;;;;4.57;0.50;;;;;;;5.89;100.00;99720.84;5030003;28;20037;-73
2023/01/15 01:30:12;;;;;;;7.30;0.80;;;;;;;5.92;99.24;99718.78;5043684;28;20030;-74
2023/01/15 01:32:39;;;;;;;4.60;0.98;;;;;;;5.91;99.30;99718.91;5028006;28;20055;-74
2023/01/15 01:35:05;;;;;;;6.07;0.88;;;;;;;5.90;97.61;99723.25;5024070;28;20029;-73
2023/01/15 01:37:30;;;;;;;5.05;0.40;;;;;;;5.78;98.02;99717.56;5042322;28;20136;-73
2023/01/15 01:39:55;;;;;;;4.47;0.47;;;;;;;5.81;98.10;99722.41;5014824;28;20046;-73
2023/01/15 01:42:21;;;;;;;3.45;0.50;;;;;;;5.97;97.58;99716.59;5041820;28;20036;-73
2023/01/15 01:44:48;;;;;;;5.13;0.50;;;;;;;5.87;96.38;99722.75;5025474;28;20487;-73
2023/01/15 01:47:22;;;;;;;3.67;1.13;;;;;;;5.82;97.42;99729.16;5024680;28;20028;-73
2023/01/15 01:49:56;;;;;;;4.40;0.50;;;;;;;5.73;96.38;99734.41;5042219;28;20048;-73
2023/01/15 01:52:26;;;;;;;1.52;0.30;;;;;;;5.79;96.90;99742.31;5051251;22;22207;-73
2023/01/15 01:54:52;;;;;;;1.40;0.40;;;;;;;5.75;96.48;99742.78;5050131;28;20530;-73
2023/01/15 01:57:21;;;;;;;9.95;1.05;;;;;;;5.78;96.79;99748.44;5038903;28;20065;-73
2023/01/15 01:59:48;;;;;;;3.30;0.80;;;;;;;5.74;96.92;99746.31;5039195;28;20090;-73
2023/01/15 02:02:18;;;;;;;7.18;1.42;;;;;;;5.82;96.33;99746.34;5056561;28;20029;-73
2023/01/15 02:04:44;;;;;;;4.35;0.88;;;;;;;5.84;96.04;99744.47;5038319;28;20502;-73
2023/01/15 02:07:10;;;;;;;3.38;0.47;;;;;;;5.81;95.69;99737.84;5043108;28;20394;-73
2023/01/15 02:09:36;;;;;;;10.00;0.85;;;;;;;5.79;96.53;99732.03;5026683;28;20545;-73
2023/01/15 02:12:13;;;;;;;2.58;0.60;;;;;;;5.79;96.11;99731.22;5040537;28;20021;-73
2023/01/15 02:14:58;;;;;;;1.52;0.50;;;;;;;5.83;95.59;99735.13;5039569;28;20033;-73
2023/01/15 02:17:37;;;;;;;4.85;0.88;;;;;;;5.80;96.38;99743.13;5037739;28;20518;-73
2023/01/15 02:20:20;;;;;;;5.47;1.35;;;;;;;5.73;96.81;99735.22;5058115;28;20086;-73
2023/01/15 02:23:21;;;;;;;6.05;1.00;;;;;;;5.78;96.92;99735.56;5056156;28;20039;-73
2023/01/15 02:26:20;;;;;;;7.50;1.25;;;;;;;5.73;96.83;99726.69;5040701;28;20079;-73
2023/01/15 02:28:49;;;;;;;6.97;0.77;;;;;;;5.73;97.29;99713.84;5044528;28;20278;-73
2023/01/15 02:31:36;;;;;;;4.78;0.60;;;;;;;5.77;97.28;99707.44;5040655;28;20041;-73
2023/01/15 02:34:08;;;;;;;2.83;0.77;;;;;;;5.73;97.55;99713.84;5027418;28;20059;-73
2023/01/15 02:36:39;;;;;;;2.07;0.60;;;;;;;5.78;98.07;99714.16;5044061;28;20227;-73
2023/01/15 02:39:10;;;;;;;;;;;;;;;5.71;97.90;99710.56;5045165;28;20030;-73
2023/01/15 02:41:41;;;;;;;3.53;0.90;;;;;;;5.80;96.74;99707.09;5039816;28;19990;-73
2023/01/15 02:44:10;;;;;;;3.65;0.52;;;;;;;5.69;97.19;99705.59;5043949;28;20028;-73
2023/01/15 02:46:38;;;;;;;6.32;0.70;;;;;;;5.70;97.30;99701.25;5024744;28;20045;-73
2023/01/15 02:49:10;;;;;;;3.75;0.40;;;;;;;5.74;96.83;99697.44;5043076;28;20075;-73
2023/01/15 02:51:57;;;;;;;2.15;0.50;;;;;;;5.72;96.92;99683.91;5055854;28;20025;-73
2023/01/15 02:54:29;;;;;;;2.83;0.50;;;;;;;5.65;97.88;99679.38;5044904;28;20051;-73
2023/01/15 02:56:58;;;;;;;2.75;0.50;;;;;;;5.80;97.19;99687.34;5039959;28;20677;-73
2023/01/15 02:59:32;;;;;;;3.22;0.50;;;;;;;5.72;97.24;99687.28;5048912;28;20462;-73
2023/01/15 03:02:01;;;;;;;4.22;0.50;;;;;;;5.75;97.76;99693.91;5042025;28;20052;-73
2023/01/15 03:04:46;;;;;;;3.60;0.50;;;;;;;5.62;97.91;99695.09;5043787;28;20032;-73
2023/01/15 03:07:22;;;;;;;5.05;0.68;;;;;;;5.73;98.17;99691.47;5038689;28;20031;-73
2023/01/15 03:09:49;;;;;;;6.03;0.60;;;;;;;5.69;97.72;99684.19;5040835;28;20037;-73
2023/01/15 03:13:00;;;;;;;7.07;0.65;;;;;;;5.69;97.78;99682.47;5045420;28;20036;-73
2023/01/15 03:18:07;;;;;;;11.63;0.88;;;;;;;5.64;98.50;99677.75;5042129;28;20100;-73
2023/01/15 03:20:37;;;;;;;3.53;0.60;;;;;;;5.72;98.09;99668.47;5022352;28;20487;-73
2023/01/15 03:23:10;;;;;;;5.75;0.90;;;;;;;5.60;98.60;99673.06;5041534;28;20468;-73
2023/01/15 03:25:44;;;;;;;4.38;0.57;;;;;;;5.63;98.60;99667.59;5040272;28;20037;-73
2023/01/15 03:28:13;;;;;;;6.38;0.90;;;;;;;5.72;98.00;99656.41;5044234;28;20029;-73
2023/01/15 03:30:38;;;;;;;8.35;1.15;;;;;;;5.65;97.63;99661.38;5039851;28;20045;-73
2023/01/15 03:33:04;;;;;;;9.85;0.82;;;;;;;5.80;97.26;99656.47;5041082;28;20039;-73
2023/01/15 03:35:43;;;;;;;6.97;1.13;;;;;;;5.83;96.24;99657.94;5042649;28;20029;-73
2023/01/15 03:38:12;;;;;;;8.65;1.27;;;;;;;5.73;96.85;99662.38;5027914;28;20029;-73
2023/01/15 03:40:51;;;;;;;4.05;0.63;;;;;;;5.66;97.52;99675.84;5038885;28;20036;-73
2023/01/15 03:43:40;;;;;;;7.22;1.05;;;;;;;5.74;98.05;99682.78;5040932;28;20025;-73
2023/01/15 03:46:27;;;;;;;5.45;0.60;;;;;;;5.71;97.19;99664.28;5025166;28;20490;-73
2023/01/15 03:49:03;;;;;;;9.35;1.17;;;;;;;5.77;97.67;99666.25;5040245;28;20487;-73
2023/01/15 03:51:50;;;;;;;9.38;1.20;;;;;;;5.83;97.14;99669.03;5026524;28;20037;-73
2023/01/15 03:54:24;;;;;;;6.82;1.35;;;;;;;5.75;96.71;99671.56;5039098;28;20057;-72
2023/01/15 03:57:00;;;;;;;10.27;1.00;;;;;;;5.66;96.92;99673.25;5039759;28;20072;-73
2023/01/15 03:59:38;;;;;;;5.72;0.68;;;;;;;5.69;96.95;99677.31;5040618;28;20116;-74
2023/01/15 04:02:08;;;;;;;8.25;1.05;;;;;;;5.71;97.65;99659.97;5037910;28;20094;-73
2023/01/15 04:04:34;;;;;;;8.98;0.82;;;;;;;5.66;97.05;99662.19;5041291;28;20602;-73
2023/01/15 04:07:02;;;;;;;9.48;0.77;;;;;;;5.69;96.27;99661.88;5022280;28;20033;-73
2023/01/15 04:09:29;;;;;;;4.00;0.73;;;;;;;5.73;96.24;99663.19;5039338;28;20033;-72
2023/01/15 04:11:59;;;;;;;3.45;0.65;;;;;;;5.72;95.90;99653.84;5041858;28;20037;-72
2023/01/15 04:14:28;;;;;;;2.88;0.60;;;;;;;5.73;95.24;99657.25;5043923;28;20539;-73
2023/01/15 04:16:56;;;;;;;5.97;0.82;;;;;;;5.59;95.79;99668.88;5060810;28;20040;-73
2023/01/15 04:19:23;;;;;;;4.80;1.05;;;;;;;5.67;95.71;99668.94;5028900;28;20063;-72
2023/01/15 04:22:00;;;;;;;3.88;1.00;;;;;;;5.69;95.54;99677.31;5045637;28;20080;-73
2023/01/15 04:24:26;;;;;;;10.32;1.08;;;;;;;5.74;95.57;99675.06;5045580;28;20467;-73
2023/01/15 04:26:51;;;;;;;10.52;1.00;;;;;;;5.72;94.91;99666.69;5040105;28;20295;-73
2023/01/15 04:29:17;;;;;;;6.30;0.55;;;;;;;5.74;95.34;99679.41;5042026;28;20037;-73
2023/01/15 04:31:42;;;;;;;7.22;0.88;;;;;;;5.63;96.11;99673.59;5044957;28;20049;-73
2023/01/15 04:34:08;;;;;;;7.55;1.00;;;;;;;5.69;96.14;99674.75;5047905;28;20025;-73
2023/01/15 04:36:36;;;;;;;5.03;0.73;;;;;;;5.69;96.29;99676.50;5041998;28;20369;-73
2023/01/15 04:39:03;;;;;;;9.23;1.73;;;;;;;5.64;95.96;99672.59;5027495;28;20489;-73
2023/01/15 04:44:13;;;;;;;11.23;0.80;;;;;;;5.60;96.76;99662.78;5043525;28;20526;-73
2023/01/15 04:46:45;;;;;;;8.15;0.80;;;;;;;5.64;96.15;99666.66;5043973;28;20069;-73
2023/01/15 04:49:13;;;;;;;6.72;0.93;;;;;;;5.62;96.40;99660.88;5044007;28;20052;-73
2023/01/15 04:51:38;;;;;;;11.57;1.10;;;;;;;5.59;96.24;99666.31;5027239;28;20043;-73
2023/01/15 04:54:06;;;;;;;12.07;1.45;;;;;;;5.56;96.19;99654.56;5029230;28;20033;-73
2023/01/15 04:56:37;;;;;;;8.13;0.93;;;;;;;5.58;96.28;99668.06;5040225;28;20236;-72
2023/01/15 04:59:03;;;;;;;11.43;1.80;;;;;;;5.54;97.12;99669.34;5058704;28;20030;-73
2023/01/15 05:01:28;;;;;;;8.43;1.10;;;;;;;5.54;97.32;99677.06;5042136;28;20037;-73
2023/01/15 05:03:54;;;;;;;9.23;0.93;;;;;;;5.60;97.00;99663.59;5044386;28;20036;-73
2023/01/15 05:06:19;;;;;;;18.48;2.10;;;;;;;5.55;97.03;99672.72;5025657;28;20033;-73
2023/01/15 05:08:45;;;;;;;8.98;0.80;;;;;;;5.68;96.62;99667.97;5042841;28;20040;-72
2023/01/15 05:11:10;;;;;;;13.10;2.08;;;;;;;5.71;95.98;99672.00;5042218;28;20041;-73
2023/01/15 05:13:36;;;;;;;18.02;2.05;;;;;;;5.76;96.43;99686.00;5046392;28;20047;-73
2023/01/15 05:16:16;;;;;;;18.38;2.45;;;;;;;5.71;96.50;99675.41;5044367;28;20053;-73
2023/01/15 05:18:43;;;;;;;7.13;1.50;;;;;;;5.67;96.49;99679.25;5046623;28;20051;-72
2023/01/15 05:21:20;;;;;;;21.80;2.40;;;;;;;5.72;96.91;99684.72;5045883;28;20127;-73
2023/01/15 05:23:47;;;;;;;16.92;2.10;;;;;;;5.73;96.36;99688.91;5043903;28;20095;-73
2023/01/15 05:26:13;;;;;;;10.27;1.17;;;;;;;5.71;95.96;99687.44;5045763;28;20399;-73
2023/01/15 05:28:38;;;;;;;6.43;1.33;;;;;;;5.62;96.56;99691.72;5046231;28;20041;-73
2023/01/15 05:31:06;;;;;;;11.40;2.05;;;;;;;5.69;96.53;99695.31;5029173;28;20041;-73
2023/01/15 05:33:32;;;;;;;12.35;2.05;;;;;;;5.64;96.54;99687.25;5046795;28;20040;-73
2023/01/15 05:36:03;;;;;;;6.25;0.80;;;;;;;5.65;95.86;99689.66;5044093;28;20037;-73
2023/01/15 05:38:29;;;;;;;11.77;0.80;;;;;;;5.69;95.68;99679.88;5042434;28;20494;-72
2023/01/15 05:40:54;;;;;;;16.63;2.10;;;;;;;5.72;95.29;99673.63;5044942;28;20033;-73
2023/01/15 05:43:20;;;;;;;7.18;1.30;;;;;;;5.68;95.17;99672.31;5041494;28;20040;-73
2023/01/15 05:45:45;;;;;;;9.43;2.15;;;;;;;5.70;95.70;99678.91;5026968;28;20041;-72
2023/01/15 05:48:11;;;;;;;10.23;1.00;;;;;;;5.72;94.80;99683.91;5048591;28;20033;-73
2023/01/15 05:50:36;;;;;;;8.65;1.80;;;;;;;5.64;95.29;99679.53;5029155;28;20450;-73
2023/01/15 05:53:02;;;;;;;8.43;1.15;;;;;;;5.72;95.01;99678.78;5025781;28;20032;-73
2023/01/15 05:55:27;;;;;;;9.27;1.65;;;;;;;5.57;95.98;99671.59;5040382;28;20526;-73
2023/01/15 05:57:53;;;;;;;10.95;1.58;;;;;;;5.64;95.99;99677.75;5026643;28;20029;-73
2023/01/15 06:00:19;;;;;;;5.75;0.80;;;;;;;5.59;95.97;99692.81;5041584;28;20522;-73
2023/01/15 06:02:48;;;;;;;8.68;1.27;;;;;;;5.55;96.18;99688.94;5042761;28;20376;-73
2023/01/15 06:05:18;;;;;;;8.32;1.08;;;;;;;5.65;95.84;99696.56;5042828;28;20120;-71
2023/01/15 06:07:47;;;;;;;9.50;1.00;;;;;;;5.61;96.03;99697.81;5039757;28;20069;-73
2023/01/15 06:10:12;;;;;;;10.40;0.90;;;;;;;5.63;96.60;99696.72;5040321;28;20407;-73
2023/01/15 06:12:38;;;;;;;9.48;1.42;;;;;;;5.63;96.21;99712.16;5045093;28;20029;-73
2023/01/15 06:15:03;;;;;;;9.88;1.08;;;;;;;5.65;96.14;99710.25;5044231;28;20052;-73
2023/01/15 06:17:29;;;;;;;13.45;1.30;;;;;;;5.54;96.57;99713.06;5043436;28;20072;-73
2023/01/15 06:19:54;;;;;;;5.30;1.20;;;;;;;5.58;97.26;99721.28;5040241;28;20033;-73
2023/01/15 06:22:20;;;;;;;11.68;1.27;;;;;;;5.52;97.22;99714.97;5044303;28;20106;-73
2023/01/15 06:24:45;;;;;;;8.25;1.20;;;;;;;5.63;96.65;99701.03;5041471;28;20045;-73
2023/01/15 06:27:11;;;;;;;9.52;0.93;;;;;;;5.60;95.93;99704.72;5039906;28;20041;-73
2023/01/15 06:29:36;;;;;;;18.30;1.10;;;;;;;5.63;95.72;99716.47;5043367;28;20045;-73
2023/01/15 06:32:02;;;;;;;8.80;1.08;;;;;;;5.58;95.88;99704.09;5026789;28;20029;-73
2023/01/15 06:34:27;;;;;;;11.48;1.50;;;;;;;5.55;95.67;99693.28;5041055;28;20037;-74
2023/01/15 06:36:52;;;;;;;12.65;1.00;;;;;;;5.57;95.47;99717.09;5045083;28;20017;-73
2023/01/15 06:39:18;;;;;;;7.03;1.10;;;;;;;5.68;94.69;99710.91;5040480;28;20407;-73
2023/01/15 06:47:20;;;;;;;8.90;1.27;;;;;;;5.61;95.08;99721.78;5043720;28;20475;-72
2023/01/15 06:49:46;;;;;;;6.22;1.05;;;;;;;5.53;95.96;99711.44;5039353;28;20140;-73
2023/01/15 06:52:12;;;;;;;12.88;1.20;;;;;;;5.46;94.74;99718.13;5042800;28;20025;-72
2023/01/15 06:54:38;;;;;;;7.53;1.00;;;;;;;5.54;94.52;99718.19;5027093;28;20544;-73
2023/01/15 06:57:03;;;;;;;6.68;1.00;;;;;;;5.56;93.28;99716.28;5044109;28;20025;-73
2023/01/15 06:59:29;;;;;;;13.32;1.73;;;;;;;5.58;93.33;99714.38;5041722;28;20506;-72
2023/01/15 07:01:55;;;;;;;3.67;1.10;;;;;;;5.54;94.29;99710.50;5039247;28;20033;-73
2023/01/15 07:04:20;;;;;;;6.50;1.13;;;;;;;5.49;94.16;99714.47;5048576;28;20072;-73
2023/01/15 07:06:46;;;;;;;7.38;1.02;;;;;;;5.41;94.82;99710.88;5024988;28;20048;-73
2023/01/15 07:09:11;;;;;;;6.05;1.15;;;;;;;5.46;94.93;99707.84;5044544;28;20041;-73
2023/01/15 07:11:48;;;;;;;7.93;1.05;;;;;;;5.42;95.10;99709.09;5039200;28;20120;-73
2023/01/15 07:14:24;;;;;;;9.07;0.95;;;;;;;5.37;94.88;99722.41;5042367;28;20184;-73
2023/01/15 07:16:50;;;;;;;11.00;1.95;;;;;;;5.53;94.65;99734.56;5038436;28;20033;-73
2023/01/15 07:19:17;;;;;;;8.95;0.80;;;;;;;5.48;94.87;99726.50;5043911;28;20513;-73
2023/01/15 07:21:43;;;;;;;6.18;0.98;;;;;;;5.40;95.51;99740.09;5056779;28;20037;-73
2023/01/15 07:24:09;;;;;;;6.90;0.75;;;;;;;5.40;95.69;99736.72;5042540;28;20036;-73
2023/01/15 07:26:35;;;;;;;5.07;0.70;;;;;;;5.31;95.74;99737.59;5040933;28;20090;-73
2023/01/15 07:29:01;;;;;;;8.27;1.40;;;;;;;5.41;95.89;99741.72;5024097;28;20041;-73
2023/01/15 07:31:27;;;;;;;8.60;1.30;;;;;;;5.41;95.05;99752.00;5039233;28;20040;-73
2023/01/15 07:33:55;;;;;;;4.45;0.73;;;;;;;5.43;95.06;99742.38;5040534;28;20029;-73
2023/01/15 07:36:20;;;;;;;10.45;0.98;;;;;;;5.36;95.21;99751.63;5054869;28;20061;-73
2023/01/15 07:38:46;;;;;;;7.40;1.00;;;;;;;5.45;95.08;99750.75;5040017;28;20510;-73
2023/01/15 07:52:08;;;;;;;4.43;0.70;;;;;;;5.29;96.32;99775.50;5046455;28;20040;-73
2023/01/15 07:54:34;;;;;;;3.80;0.88;;;;;;;5.24;97.15;99769.03;5042579;28;20029;-73
2023/01/15 07:57:00;;;;;;;9.43;0.90;;;;;;;5.30;96.58;99772.78;5045933;28;20063;-73
2023/01/15 07:59:25;;;;;;;7.40;1.05;;;;;;;5.31;95.28;99768.44;5047085;28;20591;-73
2023/01/15 08:01:51;;;;;;;10.25;1.20;;;;;;;5.32;95.43;99765.75;5043373;28;20943;-73
2023/01/15 08:04:16;;;;;;;8.85;1.67;;;;;;;5.32;94.82;99767.50;5050884;28;20078;-71
2023/01/15 08:06:42;;;;;;;12.43;2.13;;;;;;;5.32;94.69;99780.38;5043493;28;20496;-73
2023/01/15 08:09:07;;;;;;;12.73;1.40;;;;;;;5.20;94.92;99792.63;5045294;28;20040;-73
2023/01/15 08:17:02;;;;;;;10.98;0.98;;;;;;;5.21;91.73;99796.81;5044836;28;20029;-73
2023/01/15 08:19:30;;;;;;;13.98;1.50;;;;;;;5.18;91.37;99797.06;5061798;28;20040;-73
2023/01/15 08:21:56;;;;;;;5.60;0.82;;;;;;;5.21;91.41;99805.31;5058868;28;20025;-73
2023/01/15 08:24:22;;;;;;;6.72;0.65;;;;;;;5.25;90.07;99809.22;5042412;28;20529;-75
2023/01/15 08:26:48;;;;;;;6.68;0.77;;;;;;;5.19;89.73;99809.78;5041181;28;20403;-75
2023/01/15 08:29:13;;;;;;;4.05;1.27;;;;;;;5.21;89.91;99814.78;5045928;28;20032;-75
2023/01/15 08:31:40;;;;;;;5.85;1.05;;;;;;;5.24;88.93;99827.38;5060878;28;20395;-75
2023/01/15 08:34:07;;;;;;;5.65;0.70;;;;;;;5.17;89.66;99826.31;5042375;28;20479;-75
2023/01/15 08:36:33;;;;;;;6.47;2.00;;;;;;;5.10;89.36;99832.97;5046955;28;20040;-75
2023/01/15 08:38:58;;;;;;;11.52;4.88;;;;;;;5.06;89.20;99820.41;5047023;28;20082;-75
2023/01/15 08:41:24;;;;;;;3.47;0.93;;;;;;;5.04;89.20;99830.03;5044023;28;20438;-75
2023/01/15 08:43:49;;;;;;;5.10;0.93;;;;;;;4.92;89.93;99817.53;5045288;28;20039;-75
2023/01/15 08:46:15;;;;;;;5.55;1.00;;;;;;;4.95;89.73;99812.09;5040613;28;20318;-75
2023/01/15 08:48:40;;;;;;;9.50;1.73;;;;;;;4.95;89.30;99828.31;5044449;28;20426;-74
2023/01/15 08:51:08;;;;;;;7.38;2.10;;;;;;;4.93;89.52;99826.84;5043743;28;20048;-75
2023/01/15 08:53:35;;;;;;;7.90;1.77;;;;;;;4.92;89.82;99822.69;5043842;28;20041;-75
2023/01/15 08:56:01;;;;;;;10.73;2.00;;;;;;;4.81;90.00;99826.25;5043326;28;20490;-75
2023/01/15 08:58:31;;;;;;;9.93;3.70;;;;;;;4.82;90.82;99828.66;5041665;28;20032;-75
2023/01/15 09:01:05;;;;;;;30.08;9.43;;;;;;;4.90;91.07;99837.41;5054497;28;20088;-75
2023/01/15 09:03:32;;;;;;;11.05;3.45;;;;;;;4.93;91.00;99829.41;5043473;28;20021;-75
2023/01/15 09:05:59;;;;;;;8.70;2.58;;;;;;;4.83;91.07;99832.84;5040464;28;20052;-75
2023/01/15 09:08:25;;;;;;;13.38;4.65;;;;;;;4.80;91.70;99824.59;5046381;28;20037;-75
2023/01/15 09:10:57;;;;;;;9.75;1.80;;;;;;;4.71;92.55;99830.59;5024682;28;20330;-75
2023/01/15 09:13:23;;;;;;;9.52;2.03;;;;;;;4.75;93.18;99816.53;5045223;28;20075;-75
2023/01/15 09:15:48;;;;;;;6.47;3.13;;;;;;;4.82;93.38;99823.53;5036794;28;20073;-75
2023/01/15 09:18:17;;;;;;;7.90;1.00;;;;;;;4.74;93.80;99825.97;5044584;28;20029;-75
2023/01/15 09:20:44;;;;;;;10.10;3.10;;;;;;;4.81;93.77;99824.47;5006968;28;20264;-75
2023/01/15 09:23:10;;;;;;;8.57;1.00;;;;;;;4.91;93.41;99821.84;5036333;28;20487;-75
2023/01/15 09:25:35;;;;;;;8.60;1.27;;;;;;;4.92;94.18;99825.25;5041271;28;20036;-75
2023/01/15 09:28:01;;;;;;;5.00;1.27;;;;;;;5.03;93.11;99807.06;5048977;28;20033;-75
2023/01/15 09:30:28;;;;;;;7.57;1.27;;;;;;;4.97;93.01;99805.06;5042130;28;20041;-74
2023/01/15 09:32:54;;;;;;;4.43;1.50;;;;;;;4.98;92.84;99804.13;5040758;28;20104;-75
2023/01/15 09:35:21;;;;;;;6.22;1.00;;;;;;;4.95;92.74;99809.53;5010672;28;20060;-74
2023/01/15 09:37:53;;;;;;;10.93;1.10;;;;;;;5.07;92.05;99791.22;5031665;28;20098;-75
2023/01/15 09:40:36;;;;;;;7.28;1.35;;;;;;;5.06;91.58;99799.06;5040189;28;20036;-75
2023/01/15 09:43:14;;;;;;;15.93;3.33;;;;;;;5.06;91.91;99817.03;5042021;28;20033;-75
2023/01/15 09:46:15;;;;;;;11.18;3.33;;;;;;;5.16;91.27;99822.94;5022921;28;20544;-74
2023/01/15 09:49:03;;;;;;;14.30;2.03;;;;;;;5.21;90.23;99814.78;5016746;28;20059;-75
2023/01/15 09:51:48;;;;;;;14.25;1.95;;;;;;;5.25;90.35;99803.25;5026730;28;20094;-75
2023/01/15 09:54:29;;;;;;;17.02;4.53;;;;;;;5.32;89.86;99816.34;5038144;28;20041;-75
2023/01/15 09:56:56;;;;;;;18.25;5.40;;;;;;;5.53;89.68;99818.63;5053590;28;20041;-75
2023/01/15 09:59:29;;;;;;;14.85;2.22;;;;;;;5.66;88.02;99830.16;5038914;28;20024;-75
2023/01/15 10:01:58;;;;;;;10.10;2.63;;;;;;;5.75;87.54;99817.38;5033251;28;20220;-75
2023/01/15 10:04:24;;;;;;;14.80;2.13;;;;;;;5.70;83.88;99822.97;5058105;28;20092;-75
2023/01/15 10:06:59;;;;;;;11.65;1.48;;;;;;;5.61;83.30;99804.09;5038799;28;20503;-75
2023/01/15 10:09:33;;;;;;;10.80;1.73;;;;;;;5.67;81.61;99828.41;5043246;28;20056;-75
2023/01/15 10:15:06;;;;;;;16.15;1.17;;;;;;;5.53;81.88;99834.88;5041626;28;20072;-74
2023/01/15 10:17:59;;;;;;;12.60;3.47;;;;;;;5.65;82.53;99838.84;5040343;28;20036;-75
2023/01/15 10:20:25;;;;;;;;;;;;;;;5.85;83.55;99859.25;5008189;28;20635;-75
2023/01/15 10:23:31;;;;;;;14.60;3.65;;;;;;;5.89;83.71;99854.63;5029717;28;20290;-75
2023/01/15 10:26:02;;;;;;;26.05;7.00;;;;;;;5.87;84.27;99865.06;5041355;28;20045;-75
2023/01/15 10:28:31;;;;;;;16.95;2.17;;;;;;;5.97;83.39;99868.41;5041895;28;20040;-75
2023/01/15 10:31:07;;;;;;;11.60;2.17;;;;;;;5.78;83.32;99859.06;5012720;28;20072;-75
2023/01/15 10:37:40;;;;;;;12.10;1.48;;;;;;;6.12;82.95;99860.97;5044047;28;20082;-75
2023/01/15 10:40:47;;;;;;;13.82;2.20;;;;;;;6.13;83.32;99848.91;5038541;28;20040;-74
2023/01/15 10:43:15;;;;;;;15.95;3.05;;;;;;;6.11;82.68;99861.91;5025955;28;20624;-75
2023/01/15 10:45:47;;;;;;;7.95;1.50;;;;;;;6.09;83.06;99856.13;5007502;28;20111;-75
2023/01/15 10:48:37;;;;;;;9.52;1.67;;;;;;;5.99;82.66;99863.94;5041436;28;20048;-75
2023/01/15 10:51:15;;;;;;;9.73;1.60;;;;;;;6.01;82.47;99887.75;5002808;28;20033;-75
2023/01/15 10:58:31;;;;;;;12.88;2.60;;;;;;;6.14;80.80;99856.47;5034599;28;20044;-74
2023/01/15 11:01:29;;;;;;;13.10;1.38;;;;;;;6.12;80.55;99858.41;5042793;28;20043;-75
2023/01/15 11:03:55;;;;;;;8.48;1.05;;;;;;;6.30;79.72;99865.28;5032224;28;20044;-75
2023/01/15 11:06:24;;;;;;;7.32;0.88;;;;;;;6.29;79.35;99861.91;5028978;28;20036;-75
2023/01/15 11:08:52;;;;;;;7.28;1.10;;;;;;;6.25;79.31;99857.97;5056648;28;20033;-75
2023/01/15 11:20:43;;;;;;;6.95;1.05;;;;;;;6.23;78.78;99863.31;5042802;28;20037;-74
2023/01/15 11:23:15;;;;;;;25.40;1.60;;;;;;;6.19;79.50;99856.81;5042074;28;20071;-73
2023/01/15 11:25:54;;;;;;;7.25;0.85;;;;;;;6.11;79.88;99863.69;5038172;28;20040;-75
2023/01/15 11:28:35;;;;;;;10.20;2.65;;;;;;;6.18;78.78;99857.78;5045899;28;20286;-74
2023/01/15 11:31:02;;;;;;;28.63;5.97;;;;;;;6.19;79.10;99861.16;5041991;28;20036;-75
2023/01/15 11:33:28;;;;;;;44.08;9.85;;;;;;;6.17;79.56;99852.78;5054266;28;20033;-75
2023/01/15 11:35:57;;;;;;;39.03;8.00;;;;;;;6.20;79.47;99853.31;5040375;28;20045;-74
2023/01/15 11:38:25;;;;;;;22.10;5.03;;;;;;;6.22;79.32;99848.00;5058343;28;20108;-75
2023/01/15 11:41:00;;;;;;;44.55;10.57;;;;;;;6.22;79.10;99837.72;5038567;28;20048;-74
2023/01/15 11:52:08;;;;;;;12.25;3.20;;;;;;;6.18;78.05;99844.13;5039406;28;20499;-74
2023/01/15 11:54:41;;;;;;;7.68;2.53;;;;;;;6.24;78.06;99828.88;5040773;28;20451;-74
2023/01/15 11:57:07;;;;;;;;;;;;;;;6.21;77.72;99838.66;5023130;28;20032;-74
2023/01/15 11:59:35;;;;;;;9.63;1.10;;;;;;;6.14;78.49;99853.06;5020918;28;19916;-75
2023/01/15 12:02:28;;;;;;;9.55;2.65;;;;;;;6.18;78.87;99849.28;5036470;28;20491;-75
2023/01/15 12:04:59;;;;;;;13.95;4.43;;;;;;;6.19;78.95;99861.16;5036827;28;20041;-74
2023/01/15 12:07:25;;;;;;;9.93;2.47;;;;;;;6.29;78.88;99854.19;5039728;28;20032;-75
2023/01/15 12:10:13;;;;;;;5.25;1.45;;;;;;;6.27;77.72;99868.94;5033225;28;20212;-73
2023/01/15 12:12:54;;;;;;;6.47;0.80;;;;;;;6.22;78.39;99856.53;5023079;28;20041;-75
2023/01/15 12:15:23;;;;;;;5.35;1.65;;;;;;;6.26;77.70;99851.09;5036316;28;20053;-75
2023/01/15 12:18:06;;;;;;;6.80;1.40;;;;;;;6.19;78.14;99850.88;5054274;28;20029;-74
2023/01/15 12:20:32;;;;;;;2.55;0.93;;;;;;;6.29;77.59;99854.19;4985830;28;20082;-75
2023/01/15 12:23:43;;;;;;;7.57;1.52;;;;;;;6.36;77.86;99844.84;5036324;28;20029;-73
2023/01/15 12:26:21;;;;;;;3.70;1.27;;;;;;;6.40;77.16;99835.06;5052328;28;20697;-75
2023/01/15 12:28:59;;;;;;;4.18;0.95;;;;;;;6.36;76.65;99836.34;5036827;28;20028;-75
2023/01/15 12:31:32;;;;;;;2.13;0.98;;;;;;;6.33;76.98;99836.63;5036560;28;20140;-75
2023/01/15 12:34:15;;;;;;;15.98;3.75;;;;;;;6.24;76.98;99841.75;5039413;28;20408;-75
2023/01/15 12:36:51;;;;;;;47.00;11.05;;;;;;;6.33;77.04;99841.78;5059101;28;20491;-75
2023/01/15 12:39:22;;;;;;;34.50;8.02;;;;;;;6.38;77.47;99829.25;5043781;28;20111;-75
2023/01/15 12:45:07;;;;;;;4.68;1.10;;;;;;;6.39;77.42;99844.56;5040869;28;20079;-75
2023/01/15 12:47:43;;;;;;;5.88;0.90;;;;;;;6.44;76.97;99844.09;5030365;28;20040;-74
2023/01/15 12:50:30;;;;;;;10.32;1.17;;;;;;;6.45;77.44;99843.16;5028306;28;20131;-73
2023/01/15 12:53:22;;;;;;;8.88;1.63;;;;;;;6.55;77.03;99853.34;5045095;28;20108;-74
2023/01/15 12:55:55;;;;;;;6.97;1.20;;;;;;;6.54;77.25;99846.59;4996724;28;20045;-75
2023/01/15 12:58:42;;;;;;;7.85;0.90;;;;;;;6.59;76.82;99842.59;5050464;28;20036;-74
2023/01/15 13:01:16;;;;;;;6.05;0.90;;;;;;;6.54;76.89;99839.66;5058811;28;20123;-74